createdAt,value
2022-10-15T00:01:49.864Z,7.25
2022-10-15T00:04:17.947Z,7.24
2022-10-15T00:06:45.772Z,7.23
2022-10-15T00:09:13.690Z,7.22
2022-10-15T00:11:41.746Z,7.22
2022-10-15T00:14:11.456Z,7.22
2022-10-15T00:16:41.243Z,7.21
2022-10-15T00:19:10.432Z,7.22
2022-10-15T00:21:39.413Z,7.23
2022-10-15T00:24:08.267Z,7.23
2022-10-15T00:26:36.188Z,7.21
2022-10-15T00:29:04.950Z,7.23
2022-10-15T00:31:33.167Z,7.22
2022-10-15T00:34:02.733Z,7.22
2022-10-15T00:36:34.489Z,7.21
2022-10-15T00:39:04.811Z,7.20
2022-10-15T00:41:38.186Z,7.17
2022-10-15T00:44:29.469Z,7.14
2022-10-15T00:47:23.979Z,7.12
2022-10-15T00:50:08.870Z,7.08
2022-10-15T00:53:00.528Z,7.04
2022-10-15T00:55:35.039Z,6.98
2022-10-15T00:58:14.202Z,6.95
2022-10-15T01:00:42.760Z,6.92
2022-10-15T01:03:12.350Z,6.89
2022-10-15T01:05:40.805Z,6.88
2022-10-15T01:08:10.854Z,6.88
2022-10-15T01:11:04.767Z,6.87
2022-10-15T01:14:21.215Z,6.87
2022-10-15T01:17:06.793Z,6.87
2022-10-15T01:20:13.675Z,6.85
2022-10-15T01:23:08.326Z,6.85
2022-10-15T01:26:21.314Z,6.84
2022-10-15T01:29:04.942Z,6.82
2022-10-15T01:31:46.933Z,6.80
2022-10-15T01:34:25.832Z,6.79
2022-10-15T01:37:05.554Z,6.79
2022-10-15T01:39:40.542Z,6.80
2022-10-15T01:42:14.342Z,6.77
2022-10-15T01:44:52.928Z,6.78
2022-10-15T01:47:33.861Z,6.78
2022-10-15T01:50:40.971Z,6.78
2022-10-15T01:56:09.678Z,6.75
2022-10-15T01:58:41.954Z,6.74
2022-10-15T02:01:10.307Z,6.74
2022-10-15T02:03:51.284Z,6.73
2022-10-15T02:25:42.008Z,6.75
2022-10-15T02:28:20.402Z,6.72
2022-10-15T02:30:53.148Z,6.73
2022-10-15T02:33:39.483Z,6.75
2022-10-15T02:36:11.535Z,6.76
2022-10-15T02:38:43.051Z,6.79
2022-10-15T02:41:12.500Z,6.80
2022-10-15T02:43:41.906Z,6.80
2022-10-15T02:46:14.395Z,6.81
2022-10-15T02:48:43.012Z,6.80
2022-10-15T02:51:10.903Z,6.80
2022-10-15T02:53:39.430Z,6.79
2022-10-15T02:56:07.634Z,6.79
2022-10-15T02:58:35.889Z,6.78
2022-10-15T03:01:04.895Z,6.74
2022-10-15T03:03:32.468Z,6.72
2022-10-15T03:06:00.530Z,6.67
2022-10-15T03:08:29.565Z,6.65
2022-10-15T03:11:02.821Z,6.63
2022-10-15T03:13:30.910Z,6.61
2022-10-15T03:15:58.809Z,6.57
2022-10-15T03:18:26.633Z,6.55
2022-10-15T03:20:58.181Z,6.52
2022-10-15T03:23:27.376Z,6.50
2022-10-15T03:25:57.178Z,6.45
2022-10-15T03:28:25.540Z,6.40
2022-10-15T03:30:53.595Z,6.36
2022-10-15T03:33:23.163Z,6.32
2022-10-15T03:35:52.195Z,6.30
2022-10-15T03:38:20.136Z,6.29
2022-10-15T03:40:48.770Z,6.28
2022-10-15T03:43:21.775Z,6.26
2022-10-15T03:45:49.879Z,6.25
2022-10-15T03:48:20.108Z,6.23
2022-10-15T03:50:48.401Z,6.22
2022-10-15T03:53:16.480Z,6.19
2022-10-15T03:55:44.314Z,6.16
2022-10-15T03:58:12.083Z,6.11
2022-10-15T04:00:43.314Z,6.09
2022-10-15T04:03:11.512Z,6.07
2022-10-15T04:05:39.282Z,6.04
2022-10-15T04:08:08.430Z,6.04
2022-10-15T04:10:37.922Z,6.00
2022-10-15T04:13:05.622Z,5.98
2022-10-15T04:15:33.979Z,5.96
2022-10-15T04:18:03.620Z,5.97
2022-10-15T04:20:31.593Z,5.98
2022-10-15T04:23:01.445Z,6.01
2022-10-15T04:25:29.566Z,6.00
2022-10-15T04:28:03.133Z,6.01
2022-10-15T04:30:33.285Z,6.00
2022-10-15T04:33:01.710Z,6.02
2022-10-15T04:35:29.777Z,6.03
2022-10-15T04:37:59.189Z,6.02
2022-10-15T04:40:28.769Z,6.02
2022-10-15T04:42:57.287Z,6.02
2022-10-15T04:45:26.055Z,6.04
2022-10-15T04:47:56.815Z,6.05
2022-10-15T04:50:25.955Z,6.07
2022-10-15T04:53:12.292Z,6.08
2022-10-15T04:55:40.563Z,6.11
2022-10-15T04:58:09.003Z,6.16
2022-10-15T05:00:40.192Z,6.25
2022-10-15T05:03:26.592Z,6.42
2022-10-15T05:06:02.710Z,6.67
2022-10-15T05:08:35.018Z,6.79
2022-10-15T05:11:26.246Z,6.83
2022-10-15T05:13:58.548Z,6.81
2022-10-15T05:16:32.651Z,7.02
2022-10-15T05:19:08.042Z,7.44
2022-10-15T05:21:41.705Z,7.90
2022-10-15T05:24:14.752Z,8.45
2022-10-15T05:26:53.238Z,9.00
2022-10-15T05:29:21.679Z,9.52
2022-10-15T05:31:56.002Z,9.96
2022-10-15T05:34:27.798Z,10.41
2022-10-15T05:37:01.447Z,10.88
2022-10-15T05:39:34.346Z,11.33
2022-10-15T05:45:57.033Z,12.04
2022-10-15T05:48:43.433Z,12.60
2022-10-15T05:51:23.253Z,12.84
2022-10-15T05:54:03.859Z,12.97
2022-10-15T05:56:34.359Z,13.20
2022-10-15T05:59:15.483Z,13.42
2022-10-15T06:02:28.107Z,13.59
2022-10-15T06:06:03.947Z,13.81
2022-10-15T06:18:24.607Z,13.68
2022-10-15T06:20:56.288Z,13.70
2022-10-15T06:23:27.314Z,13.65
2022-10-15T06:26:07.632Z,13.58
2022-10-15T06:28:37.358Z,13.56
2022-10-15T06:31:07.443Z,13.46
2022-10-15T06:33:36.784Z,13.38
2022-10-15T06:36:10.584Z,13.28
2022-10-15T06:38:54.001Z,13.24
2022-10-15T06:41:32.872Z,13.16
2022-10-15T06:44:03.078Z,13.13
2022-10-15T06:46:30.907Z,13.19
2022-10-15T06:49:06.043Z,13.27
2022-10-15T06:51:36.965Z,13.37
2022-10-15T06:54:05.071Z,13.54
2022-10-15T06:56:33.239Z,13.72
2022-10-15T06:59:01.408Z,13.88
2022-10-15T07:01:29.503Z,14.00
2022-10-15T07:04:05.902Z,14.22
2022-10-15T07:06:46.288Z,14.43
2022-10-15T07:09:22.276Z,14.39
2022-10-15T07:12:00.091Z,14.39
2022-10-15T07:14:41.566Z,14.53
2022-10-15T07:17:14.566Z,14.60
2022-10-15T07:19:46.009Z,14.58
2022-10-15T07:22:17.144Z,14.43
2022-10-15T07:24:48.189Z,14.22
2022-10-15T07:27:19.313Z,14.18
2022-10-15T07:29:47.338Z,14.23
2022-10-15T07:32:15.889Z,14.25
2022-10-15T07:34:46.094Z,14.23
2022-10-15T07:37:16.640Z,14.18
2022-10-15T07:39:44.707Z,14.14
2022-10-15T07:42:16.638Z,14.10
2022-10-15T07:44:48.284Z,14.14
2022-10-15T07:47:17.265Z,14.34
2022-10-15T07:50:55.435Z,14.42
2022-10-15T07:53:27.047Z,14.52
2022-10-15T07:56:24.574Z,14.66
2022-10-15T07:59:03.371Z,14.79
2022-10-15T08:14:48.087Z,15.36
2022-10-15T08:17:16.273Z,15.68
2022-10-15T08:19:44.215Z,15.99
2022-10-15T08:22:12.400Z,16.26
2022-10-15T08:24:40.425Z,16.50
2022-10-15T08:27:08.408Z,16.78
2022-10-15T08:29:39.119Z,17.06
2022-10-15T08:32:07.142Z,17.36
2022-10-15T08:34:39.366Z,17.47
2022-10-15T08:37:08.793Z,17.44
2022-10-15T08:39:37.294Z,17.59
2022-10-15T08:42:16.378Z,17.69
2022-10-15T08:44:51.441Z,17.71
2022-10-15T08:47:40.830Z,17.81
2022-10-15T08:50:31.892Z,17.92
2022-10-15T08:53:00.024Z,18.15
2022-10-15T08:55:37.341Z,18.16
2022-10-15T08:58:13.548Z,18.05
2022-10-15T09:00:52.073Z,18.02
2022-10-15T09:03:51.191Z,17.93
2022-10-15T09:06:34.869Z,17.86
2022-10-15T09:09:20.272Z,17.75
2022-10-15T09:12:08.711Z,17.64
2022-10-15T09:14:41.501Z,17.54
2022-10-15T09:17:24.804Z,17.55
2022-10-15T09:19:56.027Z,17.60
2022-10-15T09:22:29.176Z,17.67
2022-10-15T09:24:57.520Z,17.72
2022-10-15T09:27:39.313Z,17.68
2022-10-15T09:30:34.577Z,17.61
2022-10-15T09:33:22.276Z,17.62
2022-10-15T09:36:30.651Z,17.82
2022-10-15T09:39:04.612Z,18.14
2022-10-15T09:42:08.468Z,18.55
2022-10-15T09:44:40.148Z,18.98
2022-10-15T09:47:27.546Z,19.30
2022-10-15T09:49:57.091Z,19.10
2022-10-15T09:52:47.254Z,18.93
2022-10-15T09:55:52.108Z,18.91
2022-10-15T09:58:45.510Z,18.91
2022-10-15T10:01:20.516Z,18.92
2022-10-15T10:04:10.347Z,18.91
2022-10-15T10:06:54.355Z,18.87
2022-10-15T10:10:05.592Z,18.84
2022-10-15T10:13:38.723Z,18.90
2022-10-15T10:16:15.927Z,19.06
2022-10-15T10:19:14.491Z,19.33
2022-10-15T10:21:50.280Z,19.43
2022-10-15T10:24:31.602Z,19.42
2022-10-15T10:27:01.504Z,19.56
2022-10-15T10:29:55.886Z,19.51
2022-10-15T10:32:40.186Z,19.40
2022-10-15T10:35:27.662Z,19.47
2022-10-15T10:38:36.355Z,19.31
2022-10-15T10:41:24.429Z,19.25
2022-10-15T10:44:12.785Z,19.34
2022-10-15T10:47:01.098Z,19.41
2022-10-15T10:49:57.902Z,19.58
2022-10-15T10:52:37.827Z,19.72
2022-10-15T10:55:18.925Z,19.81
2022-10-15T10:57:57.154Z,19.65
2022-10-15T11:00:43.365Z,19.57
2022-10-15T11:03:39.176Z,19.54
2022-10-15T11:06:24.102Z,19.56
2022-10-15T11:09:25.941Z,19.59
2022-10-15T11:12:02.176Z,19.67
2022-10-15T11:14:55.024Z,19.79
2022-10-15T11:18:22.825Z,19.69
2022-10-15T11:21:45.072Z,19.71
2022-10-15T11:35:40.876Z,19.84
2022-10-15T11:45:24.445Z,19.87
2022-10-15T11:48:24.554Z,19.88
2022-10-15T11:57:44.512Z,19.62
2022-10-15T12:00:52.744Z,19.64
2022-10-15T12:03:48.095Z,19.63
2022-10-15T12:06:25.906Z,19.61
2022-10-15T12:09:09.108Z,19.56
2022-10-15T12:15:52.870Z,19.61
2022-10-15T12:18:57.113Z,19.69
2022-10-15T12:25:00.000Z,19.81
2022-10-15T12:27:37.877Z,19.79
2022-10-15T12:30:16.037Z,19.73
2022-10-15T12:33:01.842Z,19.69
2022-10-15T12:35:41.779Z,19.62
2022-10-15T12:38:33.500Z,19.48
2022-10-15T12:42:03.640Z,19.26
2022-10-15T13:17:45.055Z,18.99
2022-10-15T13:21:47.585Z,18.99
2022-10-15T13:23:51.753Z,18.94
2022-10-15T13:26:26.886Z,18.83
2022-10-15T13:29:02.861Z,18.81
2022-10-15T13:31:36.659Z,18.76
2022-10-15T13:34:13.254Z,18.70
2022-10-15T13:36:42.263Z,18.60
2022-10-15T13:42:24.983Z,18.56
2022-10-15T13:45:03.790Z,18.52
2022-10-15T13:47:37.710Z,18.45
2022-10-15T13:50:34.622Z,18.40
2022-10-15T13:53:33.753Z,18.32
2022-10-15T13:56:35.342Z,18.26
2022-10-15T13:59:18.977Z,18.17
2022-10-15T14:01:58.852Z,18.08
2022-10-15T14:04:29.754Z,17.99
2022-10-15T14:07:08.554Z,17.93
2022-10-15T14:09:40.050Z,17.89
2022-10-15T14:12:10.671Z,17.89
2022-10-15T14:14:44.710Z,17.88
2022-10-15T14:17:25.367Z,17.87
2022-10-15T14:20:25.873Z,17.82
2022-10-15T14:22:35.763Z,17.78
2022-10-15T14:27:48.760Z,17.69
2022-10-15T14:30:27.638Z,17.64
2022-10-15T14:32:55.795Z,17.59
2022-10-15T14:35:34.683Z,17.52
2022-10-15T14:38:13.876Z,17.41
2022-10-15T14:40:49.603Z,17.35
2022-10-15T14:43:18.267Z,17.29
2022-10-15T14:46:00.606Z,17.27
2022-10-15T14:48:41.201Z,17.24
2022-10-15T14:51:23.683Z,17.17
2022-10-15T14:53:53.792Z,17.10
2022-10-15T14:56:30.254Z,17.03
2022-10-15T14:59:00.759Z,16.96
2022-10-15T15:01:39.587Z,16.86
2022-10-15T15:04:34.418Z,16.79
2022-10-15T15:07:04.960Z,16.71
2022-10-15T15:09:33.052Z,16.62
2022-10-15T15:12:03.035Z,16.55
2022-10-15T15:14:30.919Z,16.47
2022-10-15T15:16:58.719Z,16.40
2022-10-15T15:19:26.667Z,16.32
2022-10-15T15:21:55.818Z,16.24
2022-10-15T15:24:23.588Z,16.15
2022-10-15T15:26:51.474Z,16.04
2022-10-15T15:29:19.198Z,15.88
2022-10-15T15:31:48.107Z,15.71
2022-10-15T15:34:15.865Z,15.54
2022-10-15T15:36:43.943Z,15.36
2022-10-15T15:39:11.972Z,15.18
2022-10-15T15:41:39.772Z,15.02
2022-10-15T15:44:24.214Z,14.87
2022-10-15T15:46:53.942Z,14.73
2022-10-15T15:49:21.840Z,14.59
2022-10-15T15:51:52.818Z,14.44
2022-10-15T15:54:20.611Z,14.28
2022-10-15T15:56:51.330Z,14.13
2022-10-15T15:59:19.160Z,14.00
2022-10-15T16:01:47.294Z,13.87
2022-10-15T16:04:16.886Z,13.75
2022-10-15T16:06:50.151Z,13.63
2022-10-15T16:09:21.490Z,13.52
2022-10-15T16:11:52.426Z,13.41
2022-10-15T16:14:20.137Z,13.29
2022-10-15T16:16:48.052Z,13.16
2022-10-15T16:19:15.814Z,13.03
2022-10-15T16:24:23.404Z,12.80
2022-10-15T16:26:51.608Z,12.69
2022-10-15T16:29:19.532Z,12.62
2022-10-15T16:31:49.230Z,12.53
2022-10-15T16:34:21.686Z,12.45
2022-10-15T16:36:49.697Z,12.34
2022-10-15T16:39:17.925Z,12.24
2022-10-15T16:41:45.450Z,12.12
2022-10-15T16:44:13.183Z,12.00
2022-10-15T16:46:41.253Z,11.87
2022-10-15T16:49:09.244Z,11.79
2022-10-15T16:51:39.856Z,11.69
2022-10-15T16:54:07.361Z,11.63
2022-10-15T16:56:35.142Z,11.56
2022-10-15T16:59:02.913Z,11.52
2022-10-15T17:01:30.695Z,11.46
2022-10-15T17:04:00.092Z,11.43
2022-10-15T17:06:30.510Z,11.38
2022-10-15T17:09:04.635Z,11.34
2022-10-15T17:11:40.642Z,11.30
2022-10-15T17:14:11.670Z,11.27
2022-10-15T17:16:53.409Z,11.21
2022-10-15T17:19:35.981Z,11.17
2022-10-15T18:48:17.041Z,9.55
2022-10-15T19:02:25.801Z,9.45
2022-10-15T19:04:57.548Z,9.43
2022-10-15T19:07:31.691Z,9.42
2022-10-15T19:10:11.386Z,9.40
2022-10-15T19:12:44.033Z,9.40
2022-10-15T19:15:12.247Z,9.36
2022-10-15T19:20:46.859Z,9.30
2022-10-15T19:26:39.148Z,9.11
2022-10-15T19:29:09.639Z,9.12
2022-10-15T19:31:41.064Z,9.06
2022-10-15T19:34:13.062Z,9.01
2022-10-15T19:36:47.754Z,8.94
2022-10-15T19:39:20.775Z,8.89
2022-10-15T19:41:51.713Z,8.84
2022-10-15T19:44:27.053Z,8.79
2022-10-15T19:46:59.759Z,8.73
2022-10-15T19:52:30.997Z,8.64
2022-10-15T19:55:21.075Z,8.61
2022-10-15T19:57:51.042Z,8.57
2022-10-15T20:00:21.383Z,8.54
2022-10-15T20:02:52.920Z,8.51
2022-10-15T20:05:28.673Z,8.49
2022-10-15T20:08:00.882Z,8.46
2022-10-15T20:10:28.901Z,8.43
2022-10-15T20:12:59.432Z,8.42
2022-10-15T20:15:33.758Z,8.39
2022-10-15T20:18:03.645Z,8.36
2022-10-15T20:20:36.674Z,8.32
2022-10-15T20:23:09.610Z,8.29
2022-10-15T20:25:42.978Z,8.27
2022-10-15T20:28:13.663Z,8.25
2022-10-15T20:30:44.989Z,8.24
2022-10-15T20:33:15.101Z,8.25
2022-10-15T20:35:42.911Z,8.24
2022-10-15T20:38:11.933Z,8.23
2022-10-15T20:40:40.956Z,8.22
2022-10-15T20:43:09.626Z,8.20
2022-10-15T20:45:44.644Z,8.19
2022-10-15T20:48:21.945Z,8.17
2022-10-15T20:50:58.582Z,8.15
2022-10-15T20:53:27.221Z,8.12
2022-10-15T20:56:01.085Z,8.12
2022-10-15T20:58:44.348Z,8.11
2022-10-15T21:01:33.871Z,8.11
2022-10-15T21:04:06.526Z,8.09
2022-10-15T21:06:35.066Z,8.06
2022-10-15T21:09:12.999Z,8.03
2022-10-15T21:11:47.513Z,7.97
2022-10-15T21:14:16.011Z,7.93
2022-10-15T21:16:43.936Z,7.87
2022-10-15T21:19:16.999Z,7.83
2022-10-15T21:21:55.397Z,7.80
2022-10-15T21:24:42.888Z,7.74
2022-10-15T21:27:27.512Z,7.70
2022-10-15T21:29:58.034Z,7.64
2022-10-15T21:35:14.561Z,7.57
2022-10-15T21:37:43.829Z,7.54
2022-10-15T21:43:44.701Z,7.47
2022-10-15T21:46:14.106Z,7.39
2022-10-15T21:48:43.435Z,7.38
2022-10-15T21:51:14.860Z,7.34
2022-10-15T21:53:43.590Z,7.31
2022-10-15T21:56:12.053Z,7.30
2022-10-15T21:58:41.133Z,7.28
2022-10-15T22:01:24.550Z,7.25
2022-10-15T22:04:03.474Z,7.22
2022-10-15T22:06:32.432Z,7.17
2022-10-15T22:09:02.185Z,7.15
2022-10-15T22:11:35.081Z,7.15
2022-10-15T22:14:09.402Z,7.12
2022-10-15T22:17:25.916Z,7.09
2022-10-15T22:20:14.535Z,7.07
2022-10-15T22:22:45.928Z,7.06
2022-10-15T22:25:14.029Z,7.04
2022-10-15T22:27:42.235Z,7.01
2022-10-15T22:30:10.683Z,6.99
2022-10-15T23:20:20.773Z,6.54
2022-10-15T23:22:51.149Z,6.50
2022-10-15T23:25:24.495Z,6.48
2022-10-15T23:27:57.439Z,6.44
2022-10-15T23:30:29.385Z,6.40
2022-10-15T23:32:57.590Z,6.39
2022-10-15T23:35:25.521Z,6.38
2022-10-15T23:37:53.705Z,6.35
2022-10-15T23:40:21.610Z,6.33
2022-10-15T23:46:22.285Z,6.32
2022-10-15T23:49:27.102Z,6.30
2022-10-15T23:55:57.221Z,6.27
